DRT weather

Del Rio International Airport
Del Rio, Texas, United States

Public forecast

Using degrees Fahrenheit for public forecast. Weather courtesy of forecast.io.

METAR (pilot weather report)

Retrieved 2019/06/20 09:53 UTC (27 minutes ago):

KDRT 200953Z AUTO 08008KT 10SM CLR 26/19 A2972 RMK AO2 SLP045 T02610194

TAF (pilot weather forecast)

Retrieved 2019/06/20 06:30 UTC (4 hours ago):

TAF KDRT 200527Z 2006/2106 11006KT P6SM BKN250 FM201800 14011KT P6SM BKN250